Time;durP1;ratioP1;P1;durP2;ratioP2;P2;SDS_P1;SDS_P2;PMS_P1;PMS_P2;Temp;Humidity;BMP_temperature;BMP_pressure;BME280_temperature;BME280_humidity;BME280_pressure;Samples;Min_cycle;Max_cycle;Signal;HPM_P1;HPM_P2
2021/03/23 00:00:36;;;;;;;8.13;4.68;;;;;;;;;;5050524;28;20384;-75
2021/03/23 00:03:13;;;;;;;7.95;4.90;;;;;;;;;;5077571;28;20393;-75
2021/03/23 00:05:39;;;;;;;8.07;4.60;;;;;;;;;;5063428;28;20752;-75
2021/03/23 00:08:06;;;;;;;7.28;4.57;;;;;;;;;;5080673;28;20410;-75
2021/03/23 00:10:32;;;;;;;9.00;4.78;;;;;;;;;;5068909;28;20410;-75
2021/03/23 00:12:58;;;;;;;8.80;4.50;;;;;;;;;;5087334;28;20717;-75
2021/03/23 00:15:24;;;;;;;10.43;6.07;;;;;;;;;;5087401;28;20401;-75
2021/03/23 00:17:51;;;;;;;13.02;8.23;;;;;;;;;;5087632;28;20394;-75
2021/03/23 00:20:23;;;;;;;10.05;6.53;;;;;;;;;;5086673;28;20871;-75
2021/03/23 00:22:49;;;;;;;11.68;6.90;;;;;;;;;;5069354;28;20429;-75
2021/03/23 00:25:16;;;;;;;8.35;5.88;;;;;;;;;;5086994;28;21148;-74
2021/03/23 00:27:42;;;;;;;10.27;6.50;;;;;;;;;;5087559;28;20855;-75
2021/03/23 00:30:09;;;;;;;9.68;6.45;;;;;;;;;;5086225;28;20923;-75
2021/03/23 00:32:35;;;;;;;10.27;6.30;;;;;;;;;;5086321;28;20426;-75
2021/03/23 00:35:01;;;;;;;9.70;5.93;;;;;;;;;;5086994;28;20774;-75
2021/03/23 00:37:27;;;;;;;10.13;6.50;;;;;;;;;;5087389;28;20385;-75
2021/03/23 00:39:53;;;;;;;11.57;6.50;;;;;;;;;;5086728;28;20390;-75
2021/03/23 00:42:20;;;;;;;11.25;5.97;;;;;;;;;;5087976;28;20374;-75
2021/03/23 00:44:46;;;;;;;10.18;6.25;;;;;;;;;;5085924;28;20481;-75
2021/03/23 00:47:12;;;;;;;10.68;5.97;;;;;;;;;;5091564;28;20449;-75
2021/03/23 00:49:38;;;;;;;11.57;6.67;;;;;;;;;;5085356;28;20485;-74
2021/03/23 00:52:04;;;;;;;10.52;6.57;;;;;;;;;;5087197;28;20520;-75
2021/03/23 00:54:30;;;;;;;11.30;6.38;;;;;;;;;;5086437;28;20415;-75
2021/03/23 00:56:57;;;;;;;11.17;6.97;;;;;;;;;;5087272;28;20732;-75
2021/03/23 00:59:23;;;;;;;11.13;6.70;;;;;;;;;;5084943;28;20413;-75
2021/03/23 01:01:49;;;;;;;9.67;6.90;;;;;;;;;;5086105;28;20378;-75
2021/03/23 01:04:15;;;;;;;11.68;6.82;;;;;;;;;;5085953;28;20864;-74
2021/03/23 01:06:41;;;;;;;11.82;7.25;;;;;;;;;;5068814;28;20409;-75
2021/03/23 01:09:06;;;;;;;10.60;7.17;;;;;;;;;;5087691;28;20935;-74
2021/03/23 01:11:32;;;;;;;11.82;7.15;;;;;;;;;;5084679;28;20481;-75
2021/03/23 01:13:58;;;;;;;12.77;7.82;;;;;;;;;;5087348;28;20375;-75
2021/03/23 01:16:24;;;;;;;11.73;7.90;;;;;;;;;;5086009;28;20394;-75
2021/03/23 01:18:50;;;;;;;11.82;7.78;;;;;;;;;;5085892;28;20485;-76
2021/03/23 01:21:16;;;;;;;11.80;7.60;;;;;;;;;;5068399;28;20539;-75
2021/03/23 01:23:43;;;;;;;10.30;7.30;;;;;;;;;;5069215;28;20393;-76
2021/03/23 01:26:08;;;;;;;10.88;7.53;;;;;;;;;;5087697;28;20406;-75
2021/03/23 01:28:34;;;;;;;12.63;7.88;;;;;;;;;;5089700;28;20414;-74
2021/03/23 01:31:00;;;;;;;15.57;8.30;;;;;;;;;;5089789;28;20390;-74
2021/03/23 01:33:27;;;;;;;13.95;7.53;;;;;;;;;;5090770;28;20405;-74
2021/03/23 01:35:53;;;;;;;11.82;7.38;;;;;;;;;;5088791;28;20493;-75
2021/03/23 01:38:18;;;;;;;14.55;7.68;;;;;;;;;;5090853;28;20445;-75
2021/03/23 01:40:44;;;;;;;13.20;7.57;;;;;;;;;;5089694;28;20468;-74
2021/03/23 01:43:19;;;;;;;11.85;6.78;;;;;;;;;;5090601;28;20385;-75
2021/03/23 01:45:45;;;;;;;9.52;6.70;;;;;;;;;;5089339;28;20394;-74
2021/03/23 01:48:22;;;;;;;9.88;6.35;;;;;;;;;;5071101;28;20479;-75
2021/03/23 01:50:52;;;;;;;12.68;6.85;;;;;;;;;;5088936;28;20550;-75
2021/03/23 01:53:27;;;;;;;10.85;6.38;;;;;;;;;;5090349;28;21063;-74
2021/03/23 01:55:53;;;;;;;17.58;6.88;;;;;;;;;;5088524;28;20398;-75
2021/03/23 01:58:19;;;;;;;11.15;7.03;;;;;;;;;;5088442;28;20398;-74
2021/03/23 02:00:47;;;;;;;11.57;7.30;;;;;;;;;;5088327;28;21075;-75
2021/03/23 02:03:13;;;;;;;10.88;7.05;;;;;;;;;;5090555;28;20436;-75
2021/03/23 02:05:39;;;;;;;12.30;7.60;;;;;;;;;;5070781;28;20414;-75
2021/03/23 02:08:06;;;;;;;12.60;7.85;;;;;;;;;;5090105;28;20410;-74
2021/03/23 02:10:32;;;;;;;11.00;7.95;;;;;;;;;;5089711;28;20386;-76
2021/03/23 02:12:58;;;;;;;11.68;7.60;;;;;;;;;;5071705;28;20501;-75
2021/03/23 02:15:25;;;;;;;12.82;8.38;;;;;;;;;;5088961;28;20432;-75
2021/03/23 02:18:17;;;;;;;11.65;7.55;;;;;;;;;;5086495;28;20410;-74
2021/03/23 02:20:56;;;;;;;12.68;8.10;;;;;;;;;;5088538;28;20475;-75
2021/03/23 02:23:26;;;;;;;14.23;8.38;;;;;;;;;;5090338;28;20769;-75
2021/03/23 02:25:52;;;;;;;11.23;7.75;;;;;;;;;;5087832;28;20405;-75
2021/03/23 02:28:18;;;;;;;14.00;8.53;;;;;;;;;;5080688;28;20527;-75
2021/03/23 02:30:46;;;;;;;13.13;8.57;;;;;;;;;;5071224;28;20739;-75
2021/03/23 02:33:12;;;;;;;12.32;8.30;;;;;;;;;;5071972;28;20389;-75
2021/03/23 02:35:38;;;;;;;13.57;8.57;;;;;;;;;;5087043;28;20848;-74
2021/03/23 02:38:05;;;;;;;13.70;9.18;;;;;;;;;;5087320;28;20403;-75
2021/03/23 02:40:31;;;;;;;15.02;9.43;;;;;;;;;;5088385;28;20872;-75
2021/03/23 02:42:57;;;;;;;12.40;9.05;;;;;;;;;;5087678;28;20390;-74
2021/03/23 02:45:24;;;;;;;14.65;8.63;;;;;;;;;;5089659;28;20453;-75
2021/03/23 02:47:50;;;;;;;12.98;8.63;;;;;;;;;;5086681;28;20434;-75
2021/03/23 02:50:16;;;;;;;14.88;8.55;;;;;;;;;;5088701;28;20378;-74
2021/03/23 02:52:42;;;;;;;14.45;9.27;;;;;;;;;;5071150;28;20394;-75
2021/03/23 02:55:08;;;;;;;13.05;8.80;;;;;;;;;;5088657;28;20757;-75
2021/03/23 02:57:34;;;;;;;14.32;9.10;;;;;;;;;;5086535;28;20413;-76
2021/03/23 03:00:01;;;;;;;15.63;9.05;;;;;;;;;;5088461;28;20385;-75
2021/03/23 03:02:26;;;;;;;15.93;9.10;;;;;;;;;;5088374;28;20413;-75
2021/03/23 03:04:52;;;;;;;14.23;9.07;;;;;;;;;;5089228;28;20366;-75
2021/03/23 03:07:18;;;;;;;14.55;9.27;;;;;;;;;;5087173;28;20432;-75
2021/03/23 03:09:44;;;;;;;14.23;9.32;;;;;;;;;;5088582;28;20377;-75
2021/03/23 03:12:10;;;;;;;14.20;9.07;;;;;;;;;;5070603;28;20409;-75
2021/03/23 03:14:36;;;;;;;13.77;9.20;;;;;;;;;;5088601;28;20414;-75
2021/03/23 03:17:03;;;;;;;13.90;9.07;;;;;;;;;;5086874;28;20574;-75
2021/03/23 03:19:29;;;;;;;14.07;9.85;;;;;;;;;;5067031;28;20411;-74
2021/03/23 03:21:55;;;;;;;15.07;9.10;;;;;;;;;;5066945;28;20405;-74
2021/03/23 03:24:21;;;;;;;15.32;10.07;;;;;;;;;;5068750;28;20378;-75
2021/03/23 03:26:46;;;;;;;15.50;9.05;;;;;;;;;;5066111;28;20399;-75
2021/03/23 03:29:13;;;;;;;15.90;9.90;;;;;;;;;;5068320;28;20376;-75
2021/03/23 03:31:39;;;;;;;11.88;9.40;;;;;;;;;;5068089;28;20390;-75
2021/03/23 03:34:05;;;;;;;17.65;10.30;;;;;;;;;;5067488;28;20919;-75
2021/03/23 03:36:32;;;;;;;15.43;10.50;;;;;;;;;;5067619;28;20396;-74
2021/03/23 03:38:58;;;;;;;17.67;10.27;;;;;;;;;;5066275;28;20391;-75
2021/03/23 03:41:25;;;;;;;15.48;10.65;;;;;;;;;;5067198;28;20387;-75
2021/03/23 03:43:51;;;;;;;15.10;10.18;;;;;;;;;;5067295;28;20463;-75
2021/03/23 03:46:17;;;;;;;14.73;10.20;;;;;;;;;;5066745;28;20406;-75
2021/03/23 03:48:43;;;;;;;15.73;10.50;;;;;;;;;;5066505;28;20862;-74
2021/03/23 03:51:09;;;;;;;15.07;10.68;;;;;;;;;;5067773;28;20466;-75
2021/03/23 03:53:35;;;;;;;16.40;10.25;;;;;;;;;;5067162;28;20415;-75
2021/03/23 03:56:01;;;;;;;16.00;10.80;;;;;;;;;;5065704;28;20550;-75
2021/03/23 03:58:27;;;;;;;14.60;10.40;;;;;;;;;;5066340;28;20392;-74
2021/03/23 04:00:53;;;;;;;15.40;10.63;;;;;;;;;;5066711;28;20391;-75
2021/03/23 04:03:20;;;;;;;16.15;10.70;;;;;;;;;;5067479;28;20391;-75
2021/03/23 04:05:47;;;;;;;17.77;11.93;;;;;;;;;;5067623;28;20421;-75
2021/03/23 04:08:14;;;;;;;17.38;11.20;;;;;;;;;;5064846;28;20464;-75
2021/03/23 04:10:40;;;;;;;16.48;11.18;;;;;;;;;;5065552;28;20483;-74
2021/03/23 04:13:06;;;;;;;15.60;10.63;;;;;;;;;;5066403;28;20464;-74
2021/03/23 04:15:34;;;;;;;17.27;11.18;;;;;;;;;;5067987;28;20439;-74
2021/03/23 04:18:01;;;;;;;19.80;11.70;;;;;;;;;;5071176;28;20978;-75
2021/03/23 04:20:29;;;;;;;16.75;11.05;;;;;;;;;;5069752;28;20864;-75
2021/03/23 04:22:56;;;;;;;18.58;11.95;;;;;;;;;;5086996;28;20400;-75
2021/03/23 04:25:25;;;;;;;18.00;11.80;;;;;;;;;;5087457;28;20951;-75
2021/03/23 04:27:51;;;;;;;18.63;12.40;;;;;;;;;;5086740;28;20465;-76
2021/03/23 04:30:17;;;;;;;16.95;11.85;;;;;;;;;;5087262;28;20914;-75
2021/03/23 04:32:44;;;;;;;17.60;11.73;;;;;;;;;;5068336;28;20425;-75
2021/03/23 04:35:12;;;;;;;20.52;11.98;;;;;;;;;;5087296;28;20374;-75
2021/03/23 04:37:38;;;;;;;18.40;12.38;;;;;;;;;;5086816;28;20862;-74
2021/03/23 04:40:05;;;;;;;18.50;12.18;;;;;;;;;;5086621;28;20394;-75
2021/03/23 04:42:31;;;;;;;21.15;12.95;;;;;;;;;;5088216;28;20409;-74
2021/03/23 04:44:56;;;;;;;20.80;12.93;;;;;;;;;;5085990;28;20433;-75
2021/03/23 04:47:22;;;;;;;20.83;12.80;;;;;;;;;;5087652;28;20406;-75
2021/03/23 04:49:48;;;;;;;20.83;13.05;;;;;;;;;;5086181;28;20398;-75
2021/03/23 04:52:14;;;;;;;19.83;13.70;;;;;;;;;;5087936;28;20479;-75
2021/03/23 04:54:40;;;;;;;23.03;13.83;;;;;;;;;;5085644;28;20385;-74
2021/03/23 04:57:06;;;;;;;20.77;13.88;;;;;;;;;;5087443;28;20554;-75
2021/03/23 04:59:32;;;;;;;21.10;14.32;;;;;;;;;;5068909;28;20415;-75
2021/03/23 05:01:58;;;;;;;23.33;14.20;;;;;;;;;;5091645;28;20472;-74
2021/03/23 05:04:25;;;;;;;21.30;13.85;;;;;;;;;;5089083;28;20394;-75
2021/03/23 05:06:51;;;;;;;22.15;14.50;;;;;;;;;;5090038;28;20401;-75
2021/03/23 05:09:17;;;;;;;23.80;14.90;;;;;;;;;;5072254;28;20386;-76
2021/03/23 05:11:43;;;;;;;23.38;16.02;;;;;;;;;;5091186;28;20373;-74
2021/03/23 05:14:10;;;;;;;23.67;15.23;;;;;;;;;;5089420;28;20930;-75
2021/03/23 05:16:36;;;;;;;22.02;14.98;;;;;;;;;;5090552;28;20394;-74
2021/03/23 05:19:02;;;;;;;25.13;15.50;;;;;;;;;;5090058;28;20413;-76
2021/03/23 05:21:28;;;;;;;23.98;15.57;;;;;;;;;;5090731;28;20921;-75
2021/03/23 05:23:58;;;;;;;21.63;15.02;;;;;;;;;;5089942;28;20465;-74
2021/03/23 05:26:25;;;;;;;24.30;15.70;;;;;;;;;;5090873;28;20414;-75
2021/03/23 05:28:51;;;;;;;21.02;14.82;;;;;;;;;;5089484;28;20424;-75
2021/03/23 05:31:17;;;;;;;23.83;15.30;;;;;;;;;;5090442;28;20436;-75
2021/03/23 05:33:43;;;;;;;23.55;16.02;;;;;;;;;;5076930;28;20422;-75
2021/03/23 05:36:10;;;;;;;23.65;16.55;;;;;;;;;;5072965;28;20412;-75
2021/03/23 05:38:36;;;;;;;25.83;16.73;;;;;;;;;;5089994;28;20772;-74
2021/03/23 05:41:02;;;;;;;25.55;16.95;;;;;;;;;;5072883;28;20378;-74
2021/03/23 05:43:31;;;;;;;23.40;16.30;;;;;;;;;;5088622;28;20398;-74
2021/03/23 05:46:18;;;;;;;25.13;16.65;;;;;;;;;;5088041;28;20386;-74
2021/03/23 05:48:53;;;;;;;23.65;16.60;;;;;;;;;;5089177;28;20449;-75
2021/03/23 05:51:22;;;;;;;25.30;17.58;;;;;;;;;;5090357;28;20935;-75
2021/03/23 05:53:54;;;;;;;22.85;16.33;;;;;;;;;;5089576;28;20463;-75
2021/03/23 05:56:21;;;;;;;23.83;17.25;;;;;;;;;;5076603;28;20530;-74
2021/03/23 05:58:51;;;;;;;24.35;17.27;;;;;;;;;;5089253;28;20413;-74
2021/03/23 06:01:19;;;;;;;23.90;17.15;;;;;;;;;;5090292;28;20389;-75
2021/03/23 06:03:51;;;;;;;28.30;17.35;;;;;;;;;;5071578;28;20413;-75
2021/03/23 06:06:20;;;;;;;25.73;17.85;;;;;;;;;;5089050;28;20386;-75
2021/03/23 06:08:47;;;;;;;23.98;17.23;;;;;;;;;;5088713;28;20459;-75
2021/03/23 06:11:33;;;;;;;25.13;17.70;;;;;;;;;;5071016;28;20394;-76
2021/03/23 06:14:17;;;;;;;25.55;18.17;;;;;;;;;;5089141;28;20401;-75
2021/03/23 06:16:43;;;;;;;26.42;17.92;;;;;;;;;;5089518;28;20390;-74
2021/03/23 06:19:25;;;;;;;26.02;18.92;;;;;;;;;;5088080;28;20744;-74
2021/03/23 06:22:07;;;;;;;29.25;18.95;;;;;;;;;;5088166;28;20454;-75
2021/03/23 06:24:37;;;;;;;28.33;19.95;;;;;;;;;;5071941;28;20409;-75
2021/03/23 06:27:03;;;;;;;28.75;19.65;;;;;;;;;;5071030;28;20767;-75
2021/03/23 06:29:48;;;;;;;29.23;20.17;;;;;;;;;;5089015;28;20398;-74
2021/03/23 06:32:26;;;;;;;30.13;20.75;;;;;;;;;;5070544;28;20824;-75
2021/03/23 06:34:54;;;;;;;27.55;19.35;;;;;;;;;;5069423;28;20406;-75
2021/03/23 06:37:22;;;;;;;29.13;20.85;;;;;;;;;;5087927;28;20390;-75
2021/03/23 06:39:49;;;;;;;33.72;21.38;;;;;;;;;;5088958;28;20390;-75
2021/03/23 06:42:37;;;;;;;30.80;21.83;;;;;;;;;;5071655;28;20469;-75
2021/03/23 06:45:11;;;;;;;31.80;20.98;;;;;;;;;;5087993;28;20885;-75
2021/03/23 06:47:40;;;;;;;27.15;20.40;;;;;;;;;;5089255;28;20456;-75
2021/03/23 06:50:16;;;;;;;31.05;21.90;;;;;;;;;;5087575;28;20443;-74
2021/03/23 06:52:42;;;;;;;30.73;22.08;;;;;;;;;;5071136;28;20395;-76
2021/03/23 06:55:17;;;;;;;36.35;22.88;;;;;;;;;;5087030;28;20481;-75
2021/03/23 06:57:43;;;;;;;36.78;22.50;;;;;;;;;;5088940;28;20447;-75
2021/03/23 07:00:16;;;;;;;33.22;23.50;;;;;;;;;;5087204;28;20462;-75
2021/03/23 07:02:42;;;;;;;34.72;24.25;;;;;;;;;;5086285;28;20394;-75
2021/03/23 07:05:20;;;;;;;35.73;24.43;;;;;;;;;;5069893;28;20413;-75
2021/03/23 07:08:02;;;;;;;31.55;23.33;;;;;;;;;;5068431;28;20415;-75
2021/03/23 07:10:36;;;;;;;35.00;23.27;;;;;;;;;;5076084;28;20433;-74
2021/03/23 07:13:03;;;;;;;34.50;24.25;;;;;;;;;;5088071;28;20860;-75
2021/03/23 07:15:34;;;;;;;37.78;25.05;;;;;;;;;;5088194;28;20482;-74
2021/03/23 07:18:06;;;;;;;35.07;24.80;;;;;;;;;;5088565;28;20433;-76
2021/03/23 07:20:36;;;;;;;39.50;27.23;;;;;;;;;;5088319;28;20397;-75
2021/03/23 07:23:04;;;;;;;37.30;25.40;;;;;;;;;;5084715;28;20398;-75
2021/03/23 07:25:30;;;;;;;39.97;27.25;;;;;;;;;;5086717;28;20401;-75
2021/03/23 07:28:15;;;;;;;44.78;28.60;;;;;;;;;;5086398;28;20437;-75
2021/03/23 07:30:45;;;;;;;46.60;28.00;;;;;;;;;;5083384;28;20421;-75
2021/03/23 07:33:14;;;;;;;46.53;29.23;;;;;;;;;;5084557;28;20398;-74
2021/03/23 07:35:42;;;;;;;43.13;29.23;;;;;;;;;;5087752;28;21086;-75
2021/03/23 07:38:26;;;;;;;46.13;30.92;;;;;;;;;;5088854;28;20867;-75
2021/03/23 07:40:54;;;;;;;45.78;30.60;;;;;;;;;;5071018;28;20994;-75
2021/03/23 07:43:44;;;;;;;52.95;34.50;;;;;;;;;;5086714;28;20406;-74
2021/03/23 07:46:17;;;;;;;53.05;33.45;;;;;;;;;;5085976;28;20389;-77
2021/03/23 07:48:44;;;;;;;53.78;34.33;;;;;;;;;;5065405;28;20418;-75
2021/03/23 07:51:18;;;;;;;56.75;36.25;;;;;;;;;;5088331;28;20452;-75
2021/03/23 07:53:44;;;;;;;56.28;35.28;;;;;;;;;;5081919;28;20399;-75
2021/03/23 07:56:19;;;;;;;68.15;40.60;;;;;;;;;;5086059;28;20797;-75
2021/03/23 07:59:02;;;;;;;76.25;47.58;;;;;;;;;;5084647;28;20491;-73
2021/03/23 08:01:38;;;;;;;83.60;51.93;;;;;;;;;;5082024;28;20406;-74
2021/03/23 08:04:13;;;;;;;88.85;53.53;;;;;;;;;;5086453;28;20390;-75
2021/03/23 08:06:39;;;;;;;93.13;56.03;;;;;;;;;;5086430;28;20386;-74
2021/03/23 08:09:23;;;;;;;90.68;53.60;;;;;;;;;;5084734;28;20499;-73
2021/03/23 08:12:03;;;;;;;92.68;56.55;;;;;;;;;;5089716;28;20372;-73
2021/03/23 08:14:41;;;;;;;95.60;57.03;;;;;;;;;;5075436;28;20408;-73
2021/03/23 08:17:07;;;;;;;94.05;57.25;;;;;;;;;;5078832;28;20425;-73
2021/03/23 08:19:42;;;;;;;105.05;63.15;;;;;;;;;;5082619;28;20767;-74
2021/03/23 08:22:11;;;;;;;114.82;66.13;;;;;;;;;;5085128;28;20390;-73
2021/03/23 08:24:56;;;;;;;116.90;66.97;;;;;;;;;;5064743;28;20440;-74
2021/03/23 08:27:42;;;;;;;111.47;65.20;;;;;;;;;;5082490;28;20901;-74
2021/03/23 08:30:11;;;;;;;111.43;65.05;;;;;;;;;;5085066;28;20486;-73
2021/03/23 08:32:53;;;;;;;109.18;64.25;;;;;;;;;;5065983;28;20427;-75
2021/03/23 08:35:18;;;;;;;109.18;64.63;;;;;;;;;;5088626;28;20377;-74
2021/03/23 15:28:21;;;;;;;61.17;38.63;;;;;;;;;;5084845;28;20367;-72
2021/03/23 15:30:47;;;;;;;54.65;38.70;;;;;;;;;;5079329;28;20425;-72
2021/03/23 15:33:13;;;;;;;56.03;39.35;;;;;;;;;;5062448;28;20429;-72
2021/03/23 15:35:39;;;;;;;53.90;38.97;;;;;;;;;;5051899;28;20770;-72
2021/03/23 15:38:13;;;;;;;59.92;41.17;;;;;;;;;;5052754;28;20452;-72
2021/03/23 15:40:39;;;;;;;54.83;40.50;;;;;;;;;;5051924;28;20406;-72
2021/03/23 15:43:05;;;;;;;58.08;41.30;;;;;;;;;;5064758;28;20384;-73
2021/03/23 15:45:31;;;;;;;56.97;40.75;;;;;;;;;;5065101;28;20387;-72
2021/03/23 15:47:57;;;;;;;63.35;44.03;;;;;;;;;;5056857;28;20413;-73
2021/03/23 15:50:25;;;;;;;64.03;44.45;;;;;;;;;;5061712;28;20450;-72
2021/03/23 15:52:51;;;;;;;59.42;42.03;;;;;;;;;;5065317;28;20376;-73
2021/03/23 15:55:21;;;;;;;65.50;44.97;;;;;;;;;;5064676;28;20377;-73
2021/03/23 15:57:47;;;;;;;64.93;45.10;;;;;;;;;;5064153;28;20434;-72
2021/03/23 16:00:22;;;;;;;60.42;43.75;;;;;;;;;;5064182;28;20846;-73
2021/03/23 16:02:51;;;;;;;64.15;45.25;;;;;;;;;;5052545;28;20394;-73
2021/03/23 16:05:18;;;;;;;64.38;45.22;;;;;;;;;;5048960;28;20402;-73
2021/03/23 16:07:44;;;;;;;65.45;46.17;;;;;;;;;;5055451;28;20457;-73
2021/03/23 16:10:18;;;;;;;63.45;46.55;;;;;;;;;;5085395;28;20402;-73
2021/03/23 16:12:44;;;;;;;66.47;48.00;;;;;;;;;;5075627;28;20396;-73
2021/03/23 16:15:16;;;;;;;68.22;46.72;;;;;;;;;;5049522;28;20378;-73
2021/03/23 16:17:42;;;;;;;67.32;48.05;;;;;;;;;;5058791;28;20691;-73
2021/03/23 16:20:08;;;;;;;71.20;48.78;;;;;;;;;;5062903;28;20381;-72
2021/03/23 16:22:34;;;;;;;67.38;48.17;;;;;;;;;;5057519;28;20383;-72
2021/03/23 16:25:00;;;;;;;62.58;46.17;;;;;;;;;;5044737;28;20386;-72
2021/03/23 16:27:26;;;;;;;68.13;48.17;;;;;;;;;;5061457;28;20431;-71
2021/03/23 16:29:52;;;;;;;66.80;50.05;;;;;;;;;;5082197;28;20390;-71
2021/03/23 16:32:18;;;;;;;71.22;50.65;;;;;;;;;;5078751;28;20397;-70
2021/03/23 16:34:44;;;;;;;65.70;46.70;;;;;;;;;;5075037;28;21017;-71
2021/03/23 16:37:18;;;;;;;62.03;44.53;;;;;;;;;;5080791;28;20780;-72
2021/03/23 16:39:44;;;;;;;60.40;45.13;;;;;;;;;;5056593;28;20408;-71
2021/03/23 16:42:13;;;;;;;58.25;45.10;;;;;;;;;;5064062;28;20416;-71
2021/03/23 16:44:39;;;;;;;62.85;45.95;;;;;;;;;;5048937;28;20411;-72
2021/03/23 16:47:05;;;;;;;64.00;48.20;;;;;;;;;;5060389;28;20412;-71
2021/03/23 16:49:31;;;;;;;65.20;48.15;;;;;;;;;;5059083;28;20426;-71
2021/03/23 16:52:01;;;;;;;63.45;47.60;;;;;;;;;;5060439;28;21135;-70
2021/03/23 16:54:28;;;;;;;62.75;48.35;;;;;;;;;;5049006;28;20413;-71
2021/03/23 16:56:54;;;;;;;65.45;48.80;;;;;;;;;;5045970;28;20873;-71
2021/03/23 16:59:21;;;;;;;64.28;50.33;;;;;;;;;;5048878;28;20392;-72
2021/03/23 17:01:47;;;;;;;69.28;51.22;;;;;;;;;;5050011;28;20404;-70
2021/03/23 17:04:13;;;;;;;62.22;49.50;;;;;;;;;;5050277;28;20418;-72
2021/03/23 17:06:39;;;;;;;63.05;50.58;;;;;;;;;;5044576;28;20901;-71
2021/03/23 17:09:05;;;;;;;62.63;49.70;;;;;;;;;;5052677;28;20486;-69
2021/03/23 17:11:31;;;;;;;75.78;49.13;;;;;;;;;;5046398;28;20400;-71
2021/03/23 17:13:57;;;;;;;64.23;48.83;;;;;;;;;;5049957;28;20575;-72
2021/03/23 17:16:23;;;;;;;62.17;48.45;;;;;;;;;;5052621;28;20879;-71
2021/03/23 17:18:51;;;;;;;57.40;46.95;;;;;;;;;;5051129;28;20403;-71
2021/03/23 17:21:17;;;;;;;60.05;46.92;;;;;;;;;;5057695;28;20466;-71
2021/03/23 17:23:43;;;;;;;57.95;46.35;;;;;;;;;;5063666;28;20986;-71
2021/03/23 17:26:09;;;;;;;60.28;46.58;;;;;;;;;;5066967;28;20719;-72
2021/03/23 17:28:36;;;;;;;56.50;46.17;;;;;;;;;;5068337;28;21086;-70
2021/03/23 17:31:03;;;;;;;60.40;46.42;;;;;;;;;;5057290;28;20380;-71
2021/03/23 17:33:30;;;;;;;55.03;46.20;;;;;;;;;;5053454;28;20482;-71
2021/03/23 17:35:57;;;;;;;54.30;44.67;;;;;;;;;;5047156;28;20403;-71
2021/03/23 17:38:23;;;;;;;56.00;45.50;;;;;;;;;;5055036;28;20825;-71
2021/03/23 17:40:50;;;;;;;58.05;44.53;;;;;;;;;;5054821;28;20402;-71
2021/03/23 17:43:16;;;;;;;52.20;44.30;;;;;;;;;;5065665;28;20826;-71
2021/03/23 17:45:44;;;;;;;51.75;43.85;;;;;;;;;;5066320;28;20391;-71
2021/03/23 17:48:11;;;;;;;54.67;44.23;;;;;;;;;;5066201;28;20430;-71
2021/03/23 17:50:38;;;;;;;57.17;45.50;;;;;;;;;;5049414;28;20380;-71
2021/03/23 17:53:05;;;;;;;54.00;45.28;;;;;;;;;;5058819;28;20435;-72
2021/03/23 17:55:31;;;;;;;54.30;45.55;;;;;;;;;;5068607;28;20471;-72
2021/03/23 17:57:57;;;;;;;52.60;43.90;;;;;;;;;;5051720;28;20472;-72
2021/03/23 18:00:24;;;;;;;57.28;45.20;;;;;;;;;;5065143;28;20397;-71
2021/03/23 18:02:51;;;;;;;59.00;47.65;;;;;;;;;;5059772;28;20396;-72
2021/03/23 18:05:18;;;;;;;60.65;45.45;;;;;;;;;;5057073;28;20383;-72
2021/03/23 18:07:44;;;;;;;55.40;46.03;;;;;;;;;;5057594;28;20410;-72
2021/03/23 18:10:10;;;;;;;59.25;46.47;;;;;;;;;;5052023;28;20405;-72
2021/03/23 18:12:36;;;;;;;58.33;46.88;;;;;;;;;;5051854;28;20393;-73
2021/03/23 18:15:03;;;;;;;55.58;45.72;;;;;;;;;;5050921;28;20377;-72
2021/03/23 18:17:29;;;;;;;59.37;45.97;;;;;;;;;;5062369;28;20959;-72
2021/03/23 18:19:55;;;;;;;56.45;45.75;;;;;;;;;;5053325;28;20453;-72
2021/03/23 18:22:21;;;;;;;55.53;46.20;;;;;;;;;;5058462;28;20376;-72
2021/03/23 18:24:47;;;;;;;54.22;44.70;;;;;;;;;;5056420;28;20381;-73
2021/03/23 18:27:13;;;;;;;62.55;47.28;;;;;;;;;;5056445;28;20842;-72
2021/03/23 18:29:39;;;;;;;56.60;45.90;;;;;;;;;;5070608;28;20411;-72
2021/03/23 18:32:05;;;;;;;59.35;45.00;;;;;;;;;;5083528;28;20370;-72
2021/03/23 18:34:32;;;;;;;56.20;45.10;;;;;;;;;;5089521;28;20358;-72
2021/03/23 18:36:58;;;;;;;56.50;44.03;;;;;;;;;;5066840;28;20886;-72
2021/03/23 18:39:24;;;;;;;56.25;43.55;;;;;;;;;;5067229;28;20406;-72
2021/03/23 18:41:50;;;;;;;51.67;43.25;;;;;;;;;;5054546;28;20381;-73
2021/03/23 18:44:17;;;;;;;50.93;42.10;;;;;;;;;;5052190;28;20457;-72
2021/03/23 18:46:43;;;;;;;52.33;42.00;;;;;;;;;;5068587;28;20504;-72
2021/03/23 18:49:09;;;;;;;55.30;41.90;;;;;;;;;;5069010;28;20368;-72
2021/03/23 18:51:35;;;;;;;50.38;40.13;;;;;;;;;;5054645;28;20877;-73
2021/03/23 18:54:01;;;;;;;50.90;40.80;;;;;;;;;;5068688;28;20360;-72
2021/03/23 18:56:27;;;;;;;50.08;40.70;;;;;;;;;;5067664;28;20817;-72
2021/03/23 18:58:53;;;;;;;48.95;40.05;;;;;;;;;;5068338;28;20674;-72
2021/03/23 19:02:57;;;;;;;48.97;37.35;;;;;;;;;;5117956;27;20393;-73
2021/03/23 19:05:24;;;;;;;49.95;37.83;;;;;;;;;;5112583;28;20414;-73
2021/03/23 19:07:51;;;;;;;51.03;37.92;;;;;;;;;;5103745;28;20403;-73
2021/03/23 19:10:19;;;;;;;46.50;36.97;;;;;;;;;;5089554;28;20462;-73
2021/03/23 19:12:45;;;;;;;45.90;35.65;;;;;;;;;;5106587;28;20450;-72
2021/03/23 19:15:12;;;;;;;50.65;36.67;;;;;;;;;;5102553;28;21135;-73
2021/03/23 19:17:38;;;;;;;51.77;38.70;;;;;;;;;;5109217;28;20509;-73
2021/03/23 19:20:05;;;;;;;51.70;38.67;;;;;;;;;;5111012;28;20950;-73
2021/03/23 19:22:31;;;;;;;54.13;38.73;;;;;;;;;;5113575;28;20505;-74
2021/03/23 19:24:57;;;;;;;52.08;37.90;;;;;;;;;;5103907;28;20464;-72
2021/03/23 19:27:23;;;;;;;55.72;39.15;;;;;;;;;;5106387;28;20883;-72
2021/03/23 19:29:49;;;;;;;52.22;39.88;;;;;;;;;;5104397;28;20824;-72
2021/03/23 19:32:15;;;;;;;54.85;39.95;;;;;;;;;;5104021;28;20388;-72
2021/03/23 19:34:42;;;;;;;55.22;39.88;;;;;;;;;;5105565;28;20715;-72
2021/03/23 19:37:08;;;;;;;55.10;41.13;;;;;;;;;;5100248;28;20712;-72
2021/03/23 19:39:35;;;;;;;55.00;41.42;;;;;;;;;;5101837;28;20383;-72
2021/03/23 19:42:01;;;;;;;56.92;40.45;;;;;;;;;;5089316;28;20853;-73
2021/03/23 19:44:27;;;;;;;60.78;41.17;;;;;;;;;;5100700;28;20408;-73
2021/03/23 19:46:53;;;;;;;60.30;41.55;;;;;;;;;;5095582;28;20382;-73
2021/03/23 19:49:19;;;;;;;54.40;40.13;;;;;;;;;;5105494;28;20362;-73
2021/03/23 19:51:45;;;;;;;56.90;41.13;;;;;;;;;;5106078;28;20381;-72
2021/03/23 19:54:11;;;;;;;58.75;41.63;;;;;;;;;;5114547;28;20444;-73
2021/03/23 19:56:37;;;;;;;56.30;42.08;;;;;;;;;;5114780;28;20393;-73
2021/03/23 19:59:03;;;;;;;60.38;42.03;;;;;;;;;;5114033;28;20392;-73
2021/03/23 20:01:29;;;;;;;57.17;42.08;;;;;;;;;;5106182;28;20556;-72
2021/03/23 20:03:55;;;;;;;59.75;42.25;;;;;;;;;;5109212;28;20498;-73
2021/03/23 20:06:24;;;;;;;58.40;41.65;;;;;;;;;;5102938;28;20381;-73
2021/03/23 20:08:50;;;;;;;58.95;40.95;;;;;;;;;;5103365;28;20427;-73
2021/03/23 20:11:17;;;;;;;53.22;39.72;;;;;;;;;;5100792;28;20767;-72
2021/03/23 20:13:43;;;;;;;55.05;39.40;;;;;;;;;;5097777;28;20759;-73
2021/03/23 20:16:11;;;;;;;56.78;41.97;;;;;;;;;;5102348;28;20397;-73
2021/03/23 20:18:37;;;;;;;59.70;43.40;;;;;;;;;;5100577;28;20399;-74
2021/03/23 20:21:03;;;;;;;57.33;43.40;;;;;;;;;;5094964;28;20408;-73
2021/03/23 20:23:35;;;;;;;62.95;45.20;;;;;;;;;;5098268;28;20430;-73
2021/03/23 20:26:01;;;;;;;66.22;46.88;;;;;;;;;;5103541;28;20381;-73
2021/03/23 20:28:27;;;;;;;64.07;45.42;;;;;;;;;;5096014;28;20500;-73
2021/03/23 20:30:53;;;;;;;63.83;45.03;;;;;;;;;;5092439;28;20501;-73
2021/03/23 20:33:20;;;;;;;64.22;45.65;;;;;;;;;;5097003;28;20456;-73
2021/03/23 20:35:47;;;;;;;61.47;44.83;;;;;;;;;;5100150;28;20442;-72
2021/03/23 20:38:14;;;;;;;58.70;43.67;;;;;;;;;;5101346;28;20876;-73
2021/03/23 20:40:41;;;;;;;66.22;45.20;;;;;;;;;;5094320;28;20400;-74
2021/03/23 20:43:10;;;;;;;57.97;42.40;;;;;;;;;;5101648;28;20395;-73
2021/03/23 20:45:36;;;;;;;58.35;44.67;;;;;;;;;;5099752;28;20396;-73
2021/03/23 20:48:02;;;;;;;60.60;43.83;;;;;;;;;;5104176;28;20471;-73
2021/03/23 20:50:30;;;;;;;62.30;44.42;;;;;;;;;;5099803;28;20501;-74
2021/03/23 20:52:57;;;;;;;60.97;44.45;;;;;;;;;;5098516;28;20451;-73
2021/03/23 20:55:25;;;;;;;59.15;41.20;;;;;;;;;;5101013;28;20396;-73
2021/03/23 20:57:51;;;;;;;56.90;41.20;;;;;;;;;;5102038;28;20384;-73
2021/03/23 21:00:21;;;;;;;52.85;41.38;;;;;;;;;;5090656;28;20473;-73
2021/03/23 21:02:47;;;;;;;57.30;40.35;;;;;;;;;;5098648;28;20435;-73
2021/03/23 21:05:15;;;;;;;55.83;40.25;;;;;;;;;;5100619;28;20547;-73
2021/03/23 21:07:41;;;;;;;53.85;39.55;;;;;;;;;;5103527;28;20443;-73
2021/03/23 21:10:08;;;;;;;53.67;39.83;;;;;;;;;;5095963;28;20386;-73
2021/03/23 21:12:34;;;;;;;53.83;38.33;;;;;;;;;;5094483;28;20396;-73
2021/03/23 21:15:00;;;;;;;50.42;38.30;;;;;;;;;;5103128;28;20384;-72
2021/03/23 21:17:26;;;;;;;49.15;36.85;;;;;;;;;;5103782;28;20460;-73